Time;durP1;ratioP1;P1;durP2;ratioP2;P2;SDS_P1;SDS_P2;PMS_P1;PMS_P2;Temp;Humidity;BMP_temperature;BMP_pressure;BME280_temperature;BME280_humidity;BME280_pressure;Samples;Min_cycle;Max_cycle;Signal;HPM_P1;HPM_P2
2023/04/30 00:01:03;;;;;;;13.82;3.10;;;3.50;99.90;;;1.99;87.94;101552.50;5016159;28;20037;-74
2023/04/30 00:03:29;;;;;;;16.15;2.90;;;3.50;99.90;;;1.94;88.22;101561.13;5003470;28;20168;-74
2023/04/30 00:05:56;;;;;;;12.55;2.70;;;3.40;99.90;;;1.91;88.35;101555.94;5013950;28;20121;-74
2023/04/30 00:08:21;;;;;;;18.80;3.30;;;3.40;99.90;;;1.88;88.19;101559.41;5010291;28;20024;-74
2023/04/30 00:10:47;;;;;;;15.90;3.05;;;3.30;99.90;;;1.86;88.42;101558.53;5027514;28;20037;-74
2023/04/30 00:13:13;;;;;;;19.92;3.72;;;3.30;99.90;;;1.82;88.74;101557.66;5006670;28;20041;-74
2023/04/30 00:15:40;;;;;;;17.60;3.28;;;3.30;99.90;;;1.82;88.81;101565.44;5010951;28;20041;-73
2023/04/30 00:18:06;;;;;;;13.18;3.35;;;3.30;99.90;;;1.80;88.64;101568.91;5003367;28;20038;-73
2023/04/30 00:20:34;;;;;;;16.55;3.55;;;3.30;99.90;;;1.79;88.57;101565.44;5016554;28;20390;-73
2023/04/30 00:22:59;;;;;;;14.23;3.58;;;3.30;99.90;;;1.78;89.13;101565.44;5014488;28;20048;-74
2023/04/30 00:25:25;;;;;;;11.05;3.35;;;3.30;99.90;;;1.73;89.57;101565.41;5029013;28;20037;-74
2023/04/30 00:27:51;;;;;;;18.85;3.30;;;3.20;99.90;;;1.73;89.62;101568.00;5023890;28;20052;-74
2023/04/30 00:30:17;;;;;;;12.80;3.40;;;3.20;99.90;;;1.71;89.84;101563.69;5011396;28;20030;-74
2023/04/30 00:32:44;;;;;;;16.75;3.95;;;3.20;99.90;;;1.64;90.08;101568.84;5008918;28;20485;-74
2023/04/30 00:35:10;;;;;;;21.58;3.45;;;3.20;99.90;;;1.58;90.31;101563.63;5010714;28;20125;-73
2023/04/30 00:37:36;;;;;;;17.05;4.30;;;3.10;99.90;;;1.52;89.99;101571.38;5007130;28;20048;-74
2023/04/30 00:40:03;;;;;;;16.92;4.00;;;3.10;99.90;;;1.44;90.13;101563.56;5013842;28;20029;-74
2023/04/30 00:42:29;;;;;;;14.32;4.15;;;3.00;99.90;;;1.36;90.23;101575.66;5012931;28;20068;-73
2023/04/30 00:44:54;;;;;;;12.80;3.78;;;2.90;99.90;;;1.30;89.86;101572.16;5006534;28;20718;-74
2023/04/30 00:47:20;;;;;;;11.98;3.67;;;2.80;99.90;;;1.20;90.01;101571.22;5014025;28;20394;-74
2023/04/30 00:49:46;;;;;;;19.30;4.00;;;2.70;99.90;;;1.12;90.06;101568.56;5013048;28;20107;-74
2023/04/30 00:52:13;;;;;;;11.13;4.00;;;2.60;99.90;;;1.08;90.07;101576.34;5015807;28;20037;-73
2023/04/30 00:54:39;;;;;;;15.52;3.60;;;2.60;99.90;;;1.04;90.56;101578.06;4992684;28;20057;-74
2023/04/30 00:57:08;;;;;;;18.00;4.88;;;2.60;99.90;;;1.03;90.57;101577.16;4987775;28;20033;-74
2023/04/30 00:59:34;;;;;;;20.67;4.35;;;2.60;99.90;;;1.04;90.56;101578.06;5018869;28;20041;-74
2023/04/30 01:02:01;;;;;;;18.98;4.30;;;2.60;99.90;;;1.01;90.82;101584.06;5012880;28;20063;-73
2023/04/30 01:04:28;;;;;;;17.33;4.93;;;2.50;99.90;;;0.97;91.48;101584.03;5032873;28;20037;-74
2023/04/30 01:06:55;;;;;;;24.48;5.30;;;2.50;99.90;;;0.96;91.71;101592.69;5015274;28;20037;-74
2023/04/30 01:09:21;;;;;;;23.17;4.35;;;2.50;99.90;;;0.94;91.87;101589.22;5004832;28;20390;-74
2023/04/30 01:12:04;;;;;;;18.23;4.28;;;2.50;99.90;;;0.91;91.89;101587.47;5012327;28;20197;-74
2023/04/30 01:14:43;;;;;;;15.63;4.50;;;2.40;99.90;;;0.89;92.20;101607.34;5023621;28;20064;-73
2023/04/30 01:17:30;;;;;;;17.15;4.60;;;2.40;99.90;;;0.84;91.91;101603.84;5013396;28;20042;-73
2023/04/30 01:19:57;;;;;;;13.70;4.60;;;2.40;99.90;;;0.79;92.19;101601.22;5016701;28;20417;-73
2023/04/30 01:22:26;;;;;;;25.95;5.03;;;2.30;99.90;;;0.78;92.37;101598.63;5015308;28;20033;-74
2023/04/30 01:25:52;;;;;;;14.90;4.53;;;2.30;99.90;;;0.73;92.37;101601.16;5007999;28;20038;-74
2023/04/30 01:28:19;;;;;;;23.65;4.78;;;2.30;99.90;;;0.69;92.20;101604.63;5024434;28;20132;-73
2023/04/30 01:30:46;;;;;;;17.83;4.63;;;2.20;99.90;;;0.67;92.68;101606.31;5014290;28;20132;-74
2023/04/30 01:33:13;;;;;;;21.83;4.95;;;2.20;99.90;;;0.65;92.54;101608.03;5003501;28;20064;-74
2023/04/30 01:35:59;;;;;;;20.30;4.30;;;2.20;99.90;;;0.64;92.64;101615.78;5014397;28;20033;-74
2023/04/30 01:38:55;;;;;;;;;;;2.20;99.90;;;0.54;93.01;101615.72;5010777;28;20053;-73
2023/04/30 01:41:52;;;;;;;13.40;3.85;;;2.10;99.90;;;0.51;92.74;101617.41;5032306;28;20605;-74
2023/04/30 01:44:54;;;;;;;15.82;4.72;;;2.00;99.90;;;0.49;92.58;101617.38;5020115;28;21489;-73
2023/04/30 01:47:51;;;;;;;14.45;4.38;;;2.10;99.90;;;0.48;92.72;101620.84;5021317;28;20513;-73
2023/04/30 01:50:49;;;;;;;16.90;4.20;;;2.00;99.90;;;0.45;93.19;101623.38;5017382;28;20041;-74
2023/04/30 01:53:42;;;;;;;15.02;4.55;;;2.00;99.90;;;0.44;93.39;101623.38;5001725;28;20050;-73
2023/04/30 01:56:27;;;;;;;19.77;4.25;;;2.00;99.90;;;0.42;93.38;101619.91;5010965;28;20705;-73
2023/04/30 01:58:53;;;;;;;19.30;4.82;;;2.00;99.90;;;0.40;93.77;101627.66;5015985;28;20139;-73
2023/04/30 02:01:30;;;;;;;24.92;4.57;;;2.00;99.90;;;0.39;94.06;101631.13;5022253;28;20706;-73
2023/04/30 02:03:57;;;;;;;18.13;4.18;;;2.00;99.90;;;0.35;93.87;101627.63;5030274;28;20041;-73
2023/04/30 02:06:30;;;;;;;14.32;4.45;;;2.50;99.90;;;0.33;93.87;101639.69;5012687;28;20030;-73
2023/04/30 02:09:01;;;;;;;26.88;5.53;;;1.90;99.90;;;0.33;93.66;101636.25;5013138;28;20037;-73
2023/04/30 02:11:28;;;;;;;12.93;4.05;;;1.90;99.90;;;0.33;93.89;101638.81;5011178;28;20033;-73
2023/04/30 02:13:54;;;;;;;25.95;4.30;;;1.90;99.90;;;0.32;93.45;101643.13;5011841;28;20048;-73
2023/04/30 02:16:20;;;;;;;12.05;3.85;;;1.90;99.90;;;0.31;93.69;101640.53;5019493;28;20719;-74
2023/04/30 02:18:46;;;;;;;14.98;4.03;;;1.90;99.90;;;0.32;93.98;101647.44;5020383;28;20033;-73
2023/04/30 02:21:13;;;;;;;31.60;4.78;;;1.80;99.90;;;0.32;93.96;101650.03;5010130;28;20064;-73
2023/04/30 02:23:39;;;;;;;22.92;4.85;;;1.90;99.90;;;0.31;93.47;101645.72;5011904;28;20083;-73
2023/04/30 02:26:05;;;;;;;22.17;4.63;;;1.80;99.90;;;0.29;93.84;101657.78;5006420;28;20633;-74
2023/04/30 02:28:31;;;;;;;17.73;4.50;;;1.80;99.90;;;0.26;93.87;101647.38;5023748;28;20038;-73
2023/04/30 02:30:57;;;;;;;20.08;4.50;;;1.80;99.90;;;0.24;93.99;101646.47;5009716;28;20037;-73
2023/04/30 02:33:23;;;;;;;22.20;4.28;;;1.80;99.90;;;0.22;93.83;101654.25;5019180;28;20140;-73
2023/04/30 02:35:49;;;;;;;13.63;3.63;;;1.80;99.90;;;0.20;93.87;101651.63;5000027;28;20049;-72
2023/04/30 02:38:15;;;;;;;13.70;4.05;;;1.70;99.90;;;0.19;93.62;101654.22;5007125;28;20593;-73
2023/04/30 02:40:43;;;;;;;25.52;4.28;;;1.70;99.90;;;0.18;93.70;101649.91;5008638;28;20108;-73
2023/04/30 02:43:09;;;;;;;18.83;4.85;;;1.70;99.90;;;0.18;93.94;101655.06;5003160;28;20509;-72
2023/04/30 02:45:35;;;;;;;20.73;4.53;;;1.70;99.90;;;0.19;94.18;101659.38;5022190;28;20037;-73
2023/04/30 02:48:01;;;;;;;20.08;4.20;;;1.80;99.90;;;0.22;93.95;101662.03;5014720;28;20026;-73
2023/04/30 02:50:27;;;;;;;15.68;3.90;;;1.80;99.90;;;0.20;94.28;101667.19;5024590;28;20077;-73
2023/04/30 02:52:54;;;;;;;18.48;4.35;;;1.80;99.90;;;0.19;94.33;101660.28;5006782;28;20037;-72
2023/04/30 02:55:20;;;;;;;15.35;5.22;;;1.70;99.90;;;0.18;94.13;101665.44;5012411;28;20986;-73
2023/04/30 02:57:46;;;;;;;19.58;4.10;;;1.70;99.90;;;0.14;94.14;101663.66;5009862;28;20050;-73
2023/04/30 03:00:12;;;;;;;17.58;4.13;;;1.70;99.90;;;0.10;94.29;101662.75;5003877;28;20114;-73
2023/04/30 03:02:38;;;;;;;24.30;5.72;;;1.70;99.90;;;0.08;94.42;101661.84;5003428;28;20178;-72
2023/04/30 03:05:05;;;;;;;17.83;4.72;;;1.70;99.90;;;0.08;93.98;101669.63;5015597;28;20494;-73
2023/04/30 03:07:31;;;;;;;17.38;4.20;;;1.60;99.90;;;0.07;94.10;101664.44;5009500;28;20038;-73
2023/04/30 03:09:56;;;;;;;20.42;4.55;;;1.60;99.90;;;0.03;94.12;101668.72;5011535;28;20071;-74
2023/04/30 03:12:22;;;;;;;17.75;4.40;;;1.60;99.90;;;-0.01;93.95;101672.13;5004631;28;20109;-73
2023/04/30 03:14:48;;;;;;;15.40;4.82;;;1.60;99.90;;;-0.03;93.57;101673.81;5027921;28;20472;-72
2023/04/30 03:17:14;;;;;;;15.00;5.15;;;1.50;99.90;;;-0.06;93.67;101681.56;5004739;28;20042;-73
2023/04/30 03:19:39;;;;;;;18.73;4.78;;;1.50;99.90;;;-0.11;93.38;101672.84;5009408;28;21418;-73
2023/04/30 03:22:05;;;;;;;24.20;5.10;;;1.50;99.90;;;-0.13;93.41;101680.63;5007535;28;20042;-72
2023/04/30 03:24:31;;;;;;;20.95;5.70;;;1.40;99.90;;;-0.15;93.26;101682.31;5018458;28;20589;-73
2023/04/30 03:26:57;;;;;;;20.20;5.57;;;1.40;99.90;;;-0.16;93.58;101684.88;5020916;28;20516;-73
2023/04/30 03:29:23;;;;;;;29.05;5.80;;;1.40;99.90;;;-0.15;93.79;101684.00;5012767;28;20060;-72
2023/04/30 03:31:49;;;;;;;24.60;5.50;;;1.40;99.90;;;-0.13;93.58;101692.66;5022319;28;20041;-73
2023/04/30 03:34:15;;;;;;;20.30;4.68;;;1.40;99.90;;;-0.10;93.92;101692.72;5017788;28;20037;-73
2023/04/30 03:36:40;;;;;;;21.60;5.00;;;1.50;99.90;;;-0.05;94.08;101701.41;5013720;28;20481;-73
2023/04/30 03:39:08;;;;;;;23.85;4.80;;;1.50;99.90;;;-0.02;94.13;101698.88;5011113;28;20748;-72
2023/04/30 03:41:34;;;;;;;16.38;4.53;;;1.50;99.90;;;0.01;94.37;101711.84;5007261;28;20191;-73
2023/04/30 03:44:00;;;;;;;19.73;4.30;;;1.50;99.90;;;0.04;94.02;101706.69;5021906;28;20037;-73
2023/04/30 03:46:26;;;;;;;33.50;4.72;;;1.50;99.90;;;0.06;93.81;101704.13;5010363;28;20040;-73
2023/04/30 03:48:53;;;;;;;20.23;4.72;;;1.60;99.90;;;0.09;93.59;101706.78;5016954;28;20030;-73
2023/04/30 03:51:20;;;;;;;19.45;3.83;;;1.60;99.90;;;0.09;93.79;101711.94;5011804;28;20037;-73
2023/04/30 03:53:46;;;;;;;17.88;4.10;;;1.60;99.90;;;0.09;93.34;101707.63;4994176;28;20052;-72
2023/04/30 03:56:12;;;;;;;16.65;4.47;;;1.60;99.90;;;0.16;93.40;101709.44;5016021;28;20037;-73
2023/04/30 03:58:38;;;;;;;15.68;4.30;;;1.70;99.90;;;0.27;92.93;101709.56;5010574;28;20461;-72
2023/04/30 04:01:04;;;;;;;15.63;4.47;;;1.80;99.90;;;0.38;92.63;101718.31;5008178;28;20037;-73
2023/04/30 04:03:33;;;;;;;15.57;4.45;;;1.80;99.90;;;0.50;92.52;101717.59;5016693;28;20026;-73
2023/04/30 04:05:58;;;;;;;17.38;4.63;;;1.90;99.90;;;0.63;92.23;101728.06;5010706;28;20532;-73
2023/04/30 04:08:24;;;;;;;22.30;4.78;;;2.10;99.90;;;0.78;91.76;101731.72;5015555;28;20041;-72
2023/04/30 04:10:50;;;;;;;20.98;4.72;;;2.10;99.90;;;0.94;91.72;101727.53;5018755;28;20033;-73
2023/04/30 04:13:16;;;;;;;18.27;5.13;;;2.40;99.90;;;1.22;91.23;101735.56;5014004;28;20102;-72
2023/04/30 04:15:42;;;;;;;29.33;5.75;;;2.80;99.90;;;1.85;90.52;101744.63;5006879;28;20049;-72
2023/04/30 04:18:07;;;;;;;13.40;4.28;;;3.10;99.90;;;2.22;89.34;101750.00;5006555;28;20133;-72
2023/04/30 04:20:33;;;;;;;23.48;4.60;;;3.60;99.90;;;2.86;87.40;101762.34;5007184;28;20498;-72
2023/04/30 04:22:59;;;;;;;24.10;4.55;;;4.20;99.90;;;3.69;85.52;101762.38;5008081;28;20049;-72
2023/04/30 04:25:26;;;;;;;20.30;5.10;;;4.40;99.90;;;3.75;83.33;101758.00;5009149;28;20044;-73
2023/04/30 04:27:52;;;;;;;18.90;4.13;;;5.10;99.90;;;5.08;80.77;101774.81;5009186;28;20094;-72
2023/04/30 04:30:18;;;;;;;13.90;4.35;;;6.50;99.90;;;7.48;76.07;101793.78;5008998;28;20029;-72
2023/04/30 04:32:49;;;;;;;18.15;3.95;;;8.10;99.90;;;9.75;70.20;101805.66;5013580;28;20038;-73
2023/04/30 04:35:17;;;;;;;23.52;4.43;;;9.70;99.90;;;11.93;63.60;101816.69;5007243;28;20045;-73
2023/04/30 04:37:44;;;;;;;15.57;3.88;;;11.30;99.90;;;13.72;57.98;101823.00;4993018;28;20036;-72
2023/04/30 04:40:11;;;;;;;16.27;3.97;;;12.60;99.90;;;15.21;54.01;101836.66;5003744;28;20044;-73
2023/04/30 04:42:37;;;;;;;15.98;3.55;;;13.50;99.90;;;15.93;52.01;101848.16;5003168;28;20034;-74
2023/04/30 04:45:06;;;;;;;21.58;4.13;;;14.50;99.90;;;17.45;48.84;101868.31;5009782;28;20095;-74
2023/04/30 04:47:32;;;;;;;15.93;3.78;;;15.60;99.90;;;18.67;46.43;101869.94;5010038;28;20099;-73
2023/04/30 04:49:58;;;;;;;16.77;3.60;;;16.50;99.90;;;19.78;44.35;101890.41;5016313;28;20045;-73
2023/04/30 04:52:24;;;;;;;17.00;3.97;;;17.40;99.90;;;20.81;42.16;101900.22;5018642;28;20116;-73
2023/04/30 04:54:50;;;;;;;13.30;3.60;;;18.20;99.90;;;21.71;40.66;101919.56;4999450;28;20121;-73
2023/04/30 04:57:16;;;;;;;15.07;3.70;;;19.00;98.80;;;22.63;39.08;101933.13;5011927;28;20426;-73
2023/04/30 04:59:42;;;;;;;13.10;3.38;;;19.60;97.00;;;23.28;37.68;101942.31;5025152;28;20098;-74
2023/04/30 05:02:07;;;;;;;17.48;3.60;;;20.20;95.10;;;23.94;36.26;101957.53;5010217;28;20029;-73
2023/04/30 05:04:33;;;;;;;15.63;3.63;;;20.70;93.80;;;24.41;35.43;101976.00;5016339;28;20130;-73
2023/04/30 05:06:59;;;;;;;15.30;3.53;;;21.00;92.40;;;24.77;34.23;101980.94;5015673;28;20125;-73
2023/04/30 05:09:24;;;;;;;15.50;3.55;;;21.30;90.70;;;25.06;33.23;101992.81;4995979;28;20124;-73
2023/04/30 05:11:50;;;;;;;13.70;3.60;;;21.50;90.20;;;25.24;33.06;101993.06;5021822;28;21133;-73
2023/04/30 05:14:16;;;;;;;14.80;3.83;;;21.70;90.90;;;25.48;32.90;101998.94;4986913;28;20084;-73
2023/04/30 05:16:42;;;;;;;19.90;3.65;;;21.90;89.30;;;26.02;31.88;102015.66;5008303;28;20036;-73
2023/04/30 05:19:08;;;;;;;18.45;3.97;;;22.10;89.80;;;26.39;31.66;102017.63;5021403;28;20030;-73
2023/04/30 05:21:35;;;;;;;11.30;3.53;;;22.40;90.00;;;27.25;30.57;102043.78;5010257;28;20037;-73
2023/04/30 05:24:02;;;;;;;16.15;4.22;;;22.80;88.10;;;27.85;29.81;102055.00;5006842;28;20032;-73
2023/04/30 05:26:28;;;;;;;11.02;3.10;;;23.10;87.50;;;27.94;29.71;102055.94;4991249;28;20052;-73
2023/04/30 05:28:53;;;;;;;12.13;3.45;;;23.40;86.90;;;28.26;29.46;102062.69;5012480;28;20026;-73
2023/04/30 05:31:19;;;;;;;14.93;3.78;;;23.80;82.80;;;28.19;28.73;102071.41;5013386;28;20033;-73
2023/04/30 05:33:45;;;;;;;;;;;23.80;86.50;;;29.17;29.03;102087.59;5012433;28;20083;-73
2023/04/30 05:36:11;;;;;;;13.13;3.30;;;24.50;84.80;;;29.52;27.93;102091.16;5030277;28;20492;-74
2023/04/30 05:38:36;;;;;;;;;;;24.50;85.70;;;29.68;27.50;102100.38;5008917;28;20038;-74
2023/04/30 05:41:02;;;;;;;16.77;3.40;;;25.00;84.60;;;29.90;27.93;102116.09;5004491;28;19913;-73
2023/04/30 05:43:28;;;;;;;16.15;3.47;;;25.20;81.40;;;29.70;27.69;102110.09;5009274;28;21031;-74
2023/04/30 05:45:54;;;;;;;12.95;3.42;;;25.40;82.60;;;30.07;27.09;102127.00;5008897;28;20104;-74
2023/04/30 05:48:20;;;;;;;14.13;3.78;;;25.60;79.80;;;30.22;26.93;102130.78;5018133;28;20521;-73
2023/04/30 05:50:46;;;;;;;10.70;3.22;;;25.60;77.00;;;29.32;26.93;102125.84;5003778;28;20041;-74
2023/04/30 05:53:12;;;;;;;11.57;3.38;;;25.40;78.50;;;29.11;27.41;102122.66;5035445;28;20028;-74
2023/04/30 05:55:38;;;;;;;10.88;3.58;;;25.10;77.10;;;28.21;27.90;102117.31;5011621;28;20133;-73
2023/04/30 05:58:05;;;;;;;12.60;3.55;;;24.80;78.20;;;28.23;27.93;102118.00;5008665;28;20038;-74
2023/04/30 06:00:31;;;;;;;10.02;3.00;;;24.60;79.50;;;28.11;28.33;102117.34;5011106;28;20038;-74
2023/04/30 06:02:57;;;;;;;12.65;3.33;;;24.40;79.80;;;27.63;28.79;102118.47;5012623;28;20043;-73
2023/04/30 06:05:23;;;;;;;8.32;3.05;;;24.30;79.50;;;27.63;28.46;102120.34;5012629;28;20091;-74
2023/04/30 06:07:49;;;;;;;17.30;3.50;;;24.20;80.50;;;27.76;28.68;102129.78;5004675;28;20033;-74
2023/04/30 06:10:15;;;;;;;12.13;3.10;;;24.20;78.90;;;27.40;28.73;102134.22;5010999;28;20038;-74
2023/04/30 06:12:41;;;;;;;16.33;3.75;;;23.80;76.90;;;26.30;29.44;102124.63;5007784;28;20037;-74
2023/04/30 06:15:07;;;;;;;15.10;3.25;;;23.30;78.40;;;25.45;30.50;102123.25;5016598;28;20461;-74
2023/04/30 06:17:33;;;;;;;14.60;3.33;;;22.80;80.10;;;24.94;31.28;102121.38;5014616;28;20406;-73
2023/04/30 06:20:01;;;;;;;15.05;3.97;;;22.60;81.90;;;25.01;31.37;102116.31;5009628;28;20045;-74
2023/04/30 06:22:28;;;;;;;11.65;3.42;;;22.70;81.10;;;25.07;30.83;102119.31;4991287;28;20398;-74
2023/04/30 06:24:54;;;;;;;15.30;3.47;;;22.30;79.90;;;23.77;32.11;102111.38;5016487;28;20453;-74
2023/04/30 06:27:20;;;;;;;9.20;2.17;;;21.90;80.60;;;22.71;33.10;102098.97;5009275;28;20044;-73
2023/04/30 06:29:45;;;;;;;11.90;2.75;;;21.20;81.10;;;21.94;33.82;102101.13;5024462;28;20121;-74
2023/04/30 06:32:11;;;;;;;12.85;2.55;;;20.80;82.60;;;21.35;34.83;102099.09;5011530;28;20041;-74
2023/04/30 06:34:38;;;;;;;10.70;3.50;;;20.30;82.40;;;20.90;35.11;102096.81;5025000;28;20693;-74
2023/04/30 06:37:04;;;;;;;7.00;2.63;;;20.20;85.50;;;21.12;35.47;102104.22;5018056;28;20048;-74
2023/04/30 06:39:30;;;;;;;16.13;3.45;;;20.00;86.00;;;20.84;36.34;102099.91;5008298;28;20082;-74
2023/04/30 06:41:56;;;;;;;13.02;2.83;;;20.10;85.00;;;20.99;35.82;102114.06;5026129;28;20042;-74
2023/04/30 06:44:22;;;;;;;11.95;2.83;;;20.40;84.80;;;21.37;35.31;102111.41;5018590;28;20041;-74
2023/04/30 06:46:47;;;;;;;;;;;20.40;87.20;;;21.09;35.35;102115.16;5020850;28;20041;-73
2023/04/30 06:49:14;;;;;;;7.28;2.40;;;20.50;83.00;;;20.83;35.62;102109.75;5016927;28;19967;-74
2023/04/30 06:51:41;;;;;;;13.27;3.33;;;20.30;82.40;;;20.63;35.94;102103.09;5013586;28;20394;-74
2023/04/30 06:54:07;;;;;;;9.48;3.13;;;20.40;82.80;;;20.93;35.42;102114.47;5009044;28;20045;-73
2023/04/30 06:56:33;;;;;;;11.35;3.13;;;20.50;84.10;;;20.72;36.08;102098.94;5016451;28;20538;-75
2023/04/30 06:58:59;;;;;;;9.23;2.20;;;20.20;81.60;;;19.80;36.22;102099.59;5012954;28;22362;-74
2023/04/30 07:01:25;;;;;;;10.65;2.53;;;19.90;84.40;;;19.16;37.45;102085.78;5027407;28;20497;-79
2023/04/30 07:03:53;;;;;;;6.20;2.15;;;19.70;84.60;;;19.51;37.15;102096.09;4998078;28;20044;-74
2023/04/30 07:06:20;;;;;;;12.30;3.05;;;19.60;85.60;;;19.74;37.44;102092.84;5006959;28;20513;-74
2023/04/30 07:08:46;;;;;;;11.65;2.30;;;19.50;83.50;;;19.12;37.21;102090.44;4999461;28;20529;-75
2023/04/30 07:11:12;;;;;;;4.90;2.15;;;19.40;85.20;;;19.01;37.68;102076.91;5005523;28;20057;-75
2023/04/30 07:13:38;;;;;;;11.60;2.92;;;19.20;83.90;;;18.68;37.77;102083.25;5028908;28;20033;-74
2023/04/30 07:16:05;;;;;;;11.90;3.03;;;19.20;84.40;;;18.07;38.43;102076.16;5016317;28;20164;-74
2023/04/30 07:18:31;;;;;;;6.70;2.55;;;18.40;84.40;;;16.69;40.81;102066.59;5014032;28;20137;-74
2023/04/30 07:20:56;;;;;;;11.90;2.80;;;17.70;87.50;;;15.60;42.23;102050.66;5007563;28;20684;-74
2023/04/30 07:23:22;;;;;;;12.27;3.17;;;16.70;87.20;;;13.87;44.14;102032.44;4981043;28;20049;-75
2023/04/30 07:25:48;;;;;;;;;;;16.00;90.70;;;15.04;43.56;102049.66;5026637;28;20461;-73
2023/04/30 07:28:14;;;;;;;12.25;2.60;;;16.30;91.30;;;15.70;42.95;102059.91;5024495;28;19974;-74
2023/04/30 07:30:40;;;;;;;10.88;2.72;;;17.00;91.30;;;17.13;41.86;102087.44;5017056;28;20061;-74
2023/04/30 07:33:07;;;;;;;12.20;2.58;;;17.80;90.40;;;17.94;40.63;102089.31;5009086;28;20099;-75
2023/04/30 07:35:33;;;;;;;15.50;3.58;;;18.60;90.00;;;18.90;39.87;102101.56;5013648;28;20514;-75
2023/04/30 07:37:59;;;;;;;11.52;2.45;;;18.30;86.50;;;16.10;41.87;102078.44;5007595;28;20048;-74
2023/04/30 07:40:25;;;;;;;8.80;2.42;;;17.20;89.20;;;14.58;45.00;102049.00;5014019;28;20137;-75
2023/04/30 07:42:51;;;;;;;14.70;3.05;;;16.00;91.10;;;13.74;46.88;102038.22;5027191;28;20045;-74
2023/04/30 07:45:17;;;;;;;;;;;15.90;91.60;;;12.06;49.17;102021.25;5009797;28;20033;-74
2023/04/30 07:47:43;;;;;;;12.93;2.67;;;14.00;93.40;;;12.35;49.67;102035.28;5008833;28;20030;-73
2023/04/30 07:50:11;;;;;;;16.20;3.35;;;13.90;94.90;;;13.27;49.87;102046.13;5008692;28;20048;-74
2023/04/30 07:52:36;;;;;;;10.75;2.65;;;14.50;95.00;;;14.80;47.19;102056.91;5010199;28;20038;-74
2023/04/30 07:55:03;;;;;;;9.38;2.92;;;15.70;94.00;;;16.23;44.44;102078.69;5003325;28;20379;-74
2023/04/30 07:57:28;;;;;;;10.48;2.67;;;17.00;91.20;;;17.33;40.91;102102.34;5018115;28;20064;-75
2023/04/30 07:59:54;;;;;;;13.00;2.70;;;17.80;90.10;;;17.42;40.69;102107.19;5016697;28;20037;-74
2023/04/30 08:02:20;;;;;;;12.32;3.38;;;18.30;88.30;;;17.78;40.57;102115.94;5014020;28;20112;-74
2023/04/30 08:04:46;;;;;;;6.93;2.03;;;18.70;86.30;;;17.98;39.65;102106.84;5011858;28;20033;-74
2023/04/30 08:07:14;;;;;;;10.35;2.80;;;18.60;85.30;;;17.55;39.77;102120.69;5014180;28;20054;-74
2023/04/30 08:09:40;;;;;;;9.90;2.67;;;18.40;87.50;;;17.18;41.00;102114.66;5006304;28;20041;-74
2023/04/30 08:12:07;;;;;;;14.75;3.05;;;18.40;87.50;;;17.45;40.81;102110.63;5002880;28;20605;-74
2023/04/30 08:14:33;;;;;;;6.25;1.88;;;18.50;86.90;;;17.49;39.94;102122.81;5004298;28;20360;-75
2023/04/30 08:16:59;;;;;;;19.48;2.67;;;18.30;88.30;;;16.55;41.74;102101.88;5024979;28;20051;-74
2023/04/30 08:19:26;;;;;;;11.70;2.90;;;18.00;88.70;;;16.80;41.96;102100.66;5004087;28;20045;-74
2023/04/30 08:21:52;;;;;;;13.23;2.95;;;18.00;88.50;;;17.19;41.13;102108.41;5012390;28;20588;-74
2023/04/30 08:24:17;;;;;;;8.02;2.60;;;17.60;86.80;;;15.58;42.22;102097.66;5004409;28;20042;-74
2023/04/30 08:26:43;;;;;;;8.05;2.33;;;16.90;86.20;;;15.22;42.37;102094.88;4995764;28;20060;-74
2023/04/30 08:29:09;;;;;;;;;;;16.80;88.80;;;15.71;42.36;102097.94;5013944;28;20042;-74
2023/04/30 08:31:36;;;;;;;7.72;2.72;;;17.00;90.60;;;16.83;42.12;102111.19;5005360;28;19992;-74
2023/04/30 08:34:01;;;;;;;8.07;2.63;;;17.40;89.70;;;16.85;41.53;102113.75;5005446;28;20037;-74
2023/04/30 08:36:27;;;;;;;3.53;1.65;;;17.30;88.80;;;16.22;41.94;102111.50;5013238;28;20675;-75
2023/04/30 08:38:53;;;;;;;;;;;17.30;90.20;;;15.78;41.97;102099.41;5003768;28;20404;-74
2023/04/30 08:41:25;;;;;;;5.35;2.28;;;16.70;90.40;;;15.51;43.43;102098.88;5027228;28;19928;-74
2023/04/30 08:43:52;;;;;;;9.77;2.75;;;16.40;91.50;;;15.53;44.35;102084.59;4999443;28;20137;-74
2023/04/30 08:46:23;;;;;;;10.48;2.58;;;16.10;92.00;;;15.28;45.29;102089.28;4989809;28;20037;-74
2023/04/30 08:48:48;;;;;;;11.02;3.00;;;15.50;90.70;;;13.56;45.82;102075.97;5017205;28;20037;-74
2023/04/30 08:51:14;;;;;;;8.32;2.92;;;14.70;91.20;;;12.82;47.35;102051.31;5016958;28;20068;-74
2023/04/30 08:53:43;;;;;;;9.20;2.80;;;14.20;93.90;;;12.82;49.62;102056.59;5007024;28;20038;-74
2023/04/30 08:56:12;;;;;;;8.13;2.42;;;14.10;93.00;;;12.89;48.57;102056.34;5022441;28;20117;-74
2023/04/30 08:58:39;;;;;;;11.98;2.78;;;14.00;94.40;;;12.99;49.71;102063.94;4982971;28;20044;-74
2023/04/30 09:01:08;;;;;;;7.75;1.90;;;14.00;93.90;;;12.89;49.05;102058.09;5010988;28;20033;-75
2023/04/30 09:03:35;;;;;;;13.60;3.03;;;14.00;94.90;;;13.00;50.08;102055.94;5010040;28;20363;-74
2023/04/30 09:06:00;;;;;;;11.30;2.38;;;13.90;94.80;;;12.78;50.07;102055.81;5009598;28;20041;-73
2023/04/30 09:08:56;;;;;;;12.05;2.42;;;14.00;96.90;;;12.92;51.38;102061.50;5010948;28;20371;-73
2023/04/30 09:11:30;;;;;;;10.38;1.88;;;13.80;95.40;;;12.54;51.32;102054.88;4988364;28;20064;-73
2023/04/30 09:13:59;;;;;;;7.68;1.70;;;13.40;93.90;;;11.85;50.18;102052.66;5007705;28;20115;-75
2023/04/30 09:16:27;;;;;;;10.35;2.75;;;13.30;95.60;;;12.09;51.67;102055.47;5011077;28;20631;-74
2023/04/30 09:18:53;;;;;;;7.97;1.88;;;13.30;95.80;;;12.25;52.03;102061.13;5013770;28;20394;-73
2023/04/30 09:21:41;;;;;;;9.95;2.85;;;13.30;94.90;;;12.51;50.77;102061.13;5011002;28;20080;-74
2023/04/30 09:24:07;;;;;;;13.23;3.65;;;13.50;95.60;;;12.58;50.62;102058.28;5030081;28;20029;-73
2023/04/30 09:26:40;;;;;;;8.93;2.63;;;13.60;96.90;;;12.59;53.00;102062.66;5036915;28;20030;-73
2023/04/30 09:29:09;;;;;;;11.57;2.85;;;13.70;94.90;;;12.73;50.38;102069.19;5022392;28;20061;-73
2023/04/30 09:31:46;;;;;;;6.10;1.60;;;13.50;92.80;;;12.01;48.83;102061.00;5015087;28;20113;-73
2023/04/30 09:34:32;;;;;;;9.48;2.17;;;13.30;94.60;;;11.99;50.73;102059.34;5015345;28;20041;-74
2023/04/30 09:37:01;;;;;;;7.15;2.30;;;13.20;95.40;;;12.18;51.18;102064.88;5027762;28;20556;-74
2023/04/30 09:39:27;;;;;;;7.53;2.50;;;13.30;95.50;;;12.35;51.20;102061.69;5017634;28;20105;-74
2023/04/30 09:42:09;;;;;;;9.63;2.55;;;13.40;96.50;;;12.41;51.62;102059.72;5014550;28;20103;-73
2023/04/30 09:44:42;;;;;;;6.03;2.13;;;13.30;96.60;;;11.99;52.58;102049.63;4996605;28;20057;-74
2023/04/30 09:47:19;;;;;;;9.07;2.33;;;13.10;96.00;;;11.67;52.63;102048.81;5032145;28;20033;-73
2023/04/30 09:49:52;;;;;;;11.88;2.67;;;13.00;95.60;;;12.01;51.53;102047.81;5010565;28;20034;-74
2023/04/30 09:52:21;;;;;;;7.70;2.15;;;13.10;96.50;;;12.19;51.99;102045.50;5021936;28;20087;-74
2023/04/30 09:54:48;;;;;;;8.32;2.42;;;13.30;97.20;;;12.50;52.63;102056.78;5017312;28;20049;-74
2023/04/30 09:57:26;;;;;;;5.35;2.25;;;13.40;96.80;;;12.58;51.90;102063.59;5022054;28;20034;-73
2023/04/30 09:59:52;;;;;;;8.65;2.35;;;13.50;96.20;;;12.63;51.38;102049.28;5029484;28;20042;-74
2023/04/30 10:02:21;;;;;;;8.13;2.42;;;13.60;96.40;;;12.69;51.41;102053.50;5007538;28;20463;-73
2023/04/30 10:04:59;;;;;;;11.32;2.67;;;13.70;95.20;;;12.90;50.72;102065.13;5011463;28;20033;-74
2023/04/30 10:07:37;;;;;;;14.82;2.60;;;14.00;95.70;;;13.30;49.95;102069.88;5011810;28;20037;-74
2023/04/30 10:10:09;;;;;;;4.28;2.00;;;14.20;95.30;;;13.34;49.63;102070.63;5005551;28;20398;-73
2023/04/30 10:13:06;;;;;;;10.75;2.03;;;14.30;93.60;;;13.52;48.09;102069.09;4993040;28;20576;-74
2023/04/30 10:15:53;;;;;;;8.23;2.15;;;14.40;93.50;;;13.50;49.37;102066.50;5004141;28;20038;-73
2023/04/30 10:18:32;;;;;;;5.15;1.63;;;14.40;92.20;;;13.10;46.79;102072.34;5021873;28;20042;-76
2023/04/30 10:21:01;;;;;;;4.85;2.00;;;14.30;93.80;;;13.27;48.39;102067.31;4991833;28;20034;-74